Time;durP1;ratioP1;P1;durP2;ratioP2;P2;SDS_P1;SDS_P2;PMS_P1;PMS_P2;Temp;Humidity;BMP_temperature;BMP_pressure;BME280_temperature;BME280_humidity;BME280_pressure;Samples;Min_cycle;Max_cycle;Signal;HPM_P1;HPM_P2
2023/12/13 00:01:23;;;;;;;27.98;16.40;;;6.70;99.90;;;;;;5009698;28;20014;-44
2023/12/13 00:03:50;;;;;;;28.98;15.02;;;6.70;99.90;;;;;;5009371;28;20522;-43
2023/12/13 00:06:15;;;;;;;35.65;16.85;;;6.70;99.90;;;;;;5005881;28;20045;-47
2023/12/13 00:08:41;;;;;;;36.33;17.38;;;6.70;99.90;;;;;;4991786;28;20460;-44
2023/12/13 00:11:07;;;;;;;38.20;17.50;;;6.70;99.90;;;;;;5009540;28;20014;-44
2023/12/13 00:13:33;;;;;;;43.05;19.90;;;6.70;99.90;;;;;;5009704;28;20028;-45
2023/12/13 00:16:00;;;;;;;35.38;19.35;;;6.70;99.90;;;;;;5009018;28;20026;-43
2023/12/13 00:18:26;;;;;;;34.80;17.73;;;6.70;99.90;;;;;;5008886;28;20250;-43
2023/12/13 00:20:52;;;;;;;40.17;19.33;;;6.70;99.90;;;;;;5012220;28;20048;-43
2023/12/13 00:23:17;;;;;;;41.53;20.13;;;6.70;99.90;;;;;;5009022;28;20038;-44
2023/12/13 00:25:43;;;;;;;35.72;19.30;;;6.70;99.90;;;;;;5008661;28;20064;-43
2023/12/13 00:28:09;;;;;;;39.05;19.45;;;6.70;99.90;;;;;;5009018;28;20029;-44
2023/12/13 00:30:34;;;;;;;36.95;17.52;;;6.70;99.90;;;;;;4991478;28;20065;-46
2023/12/13 00:33:01;;;;;;;42.60;19.42;;;6.70;99.90;;;;;;5009570;28;20022;-45
2023/12/13 00:35:27;;;;;;;32.85;17.17;;;6.70;99.90;;;;;;4990636;28;20042;-47
2023/12/13 00:37:54;;;;;;;34.88;18.67;;;6.70;99.90;;;;;;5008262;28;20014;-47
2023/12/13 00:40:22;;;;;;;36.83;18.90;;;6.70;99.90;;;;;;5008787;28;20018;-44
2023/12/13 00:42:50;;;;;;;31.77;18.05;;;6.70;99.90;;;;;;5006275;28;20042;-48
2023/12/13 00:45:16;;;;;;;38.13;20.20;;;6.70;99.90;;;;;;5006984;28;20028;-45
2023/12/13 00:47:43;;;;;;;35.03;19.00;;;6.80;99.90;;;;;;5008713;28;20014;-47
2023/12/13 00:50:09;;;;;;;43.30;21.60;;;6.70;99.90;;;;;;4991030;28;20033;-44
2023/12/13 00:52:35;;;;;;;44.92;23.50;;;6.70;99.90;;;;;;5008424;28;20085;-43
2023/12/13 00:55:01;;;;;;;43.42;21.63;;;6.80;99.90;;;;;;5012220;28;20033;-44
2023/12/13 00:57:27;;;;;;;35.65;20.27;;;6.70;99.90;;;;;;5008448;28;20037;-47
2023/12/13 00:59:53;;;;;;;38.10;21.50;;;6.70;99.90;;;;;;5008685;28;20399;-44
2023/12/13 01:02:19;;;;;;;37.95;20.73;;;6.80;99.90;;;;;;5012178;28;20021;-46
2023/12/13 01:04:45;;;;;;;49.90;22.90;;;6.80;99.90;;;;;;5007887;28;20117;-44
2023/12/13 01:07:11;;;;;;;34.72;19.75;;;6.80;99.90;;;;;;4994566;28;20036;-43
2023/12/13 01:09:39;;;;;;;50.15;22.48;;;6.80;99.90;;;;;;4989958;28;20408;-47
2023/12/13 01:12:06;;;;;;;35.88;20.58;;;6.80;99.90;;;;;;4991261;28;20022;-44
2023/12/13 01:14:32;;;;;;;45.47;21.60;;;6.80;99.90;;;;;;5007832;28;20311;-45
2023/12/13 01:16:58;;;;;;;37.38;21.02;;;6.80;99.90;;;;;;5008400;28;20026;-43
2023/12/13 01:19:24;;;;;;;39.05;21.90;;;6.80;99.90;;;;;;5008453;28;20052;-47
2023/12/13 01:21:50;;;;;;;35.42;21.65;;;6.80;99.90;;;;;;5008756;28;20098;-44
2023/12/13 01:24:16;;;;;;;36.45;19.75;;;6.80;99.90;;;;;;5002342;28;20092;-44
2023/12/13 01:26:41;;;;;;;43.10;20.95;;;6.80;99.90;;;;;;5008384;28;20022;-45
2023/12/13 01:29:07;;;;;;;40.35;22.58;;;6.80;99.90;;;;;;5008270;28;20025;-46
2023/12/13 01:31:34;;;;;;;41.20;22.42;;;6.80;99.90;;;;;;4989297;28;20109;-43
2023/12/13 01:34:00;;;;;;;46.47;23.60;;;6.90;99.90;;;;;;5008139;28;20029;-43
2023/12/13 01:36:26;;;;;;;35.53;21.10;;;6.80;99.90;;;;;;5008013;28;20026;-43
2023/12/13 01:38:51;;;;;;;35.53;21.05;;;6.90;99.90;;;;;;5008582;28;20028;-45
2023/12/13 01:41:17;;;;;;;37.90;21.55;;;6.90;99.90;;;;;;5008289;28;20018;-44
2023/12/13 01:43:42;;;;;;;37.25;21.52;;;6.90;99.90;;;;;;5008085;28;20097;-44
2023/12/13 01:46:09;;;;;;;36.85;21.13;;;6.90;99.90;;;;;;5007653;28;20018;-44
2023/12/13 01:48:35;;;;;;;37.53;21.77;;;6.90;99.90;;;;;;5008185;28;20021;-45
2023/12/13 01:51:01;;;;;;;41.40;22.25;;;6.90;99.90;;;;;;4994420;28;20022;-44
2023/12/13 01:53:27;;;;;;;37.65;22.13;;;6.90;99.90;;;;;;5008186;28;20101;-45
2023/12/13 01:55:54;;;;;;;38.80;22.45;;;6.90;99.90;;;;;;4998326;28;20022;-44
2023/12/13 01:58:20;;;;;;;35.10;19.05;;;6.90;99.90;;;;;;5007851;28;20537;-46
2023/12/13 02:00:46;;;;;;;38.20;21.73;;;6.90;99.90;;;;;;5016037;28;20475;-45
2023/12/13 02:03:14;;;;;;;37.28;20.02;;;6.90;99.90;;;;;;4990404;28;20028;-43
2023/12/13 02:05:42;;;;;;;37.42;20.90;;;6.90;99.90;;;;;;5007126;28;20026;-45
2023/12/13 02:08:08;;;;;;;37.80;21.63;;;6.90;99.90;;;;;;4993738;28;20407;-43
2023/12/13 02:10:34;;;;;;;40.05;22.70;;;7.00;99.90;;;;;;5007987;28;20150;-43
2023/12/13 02:13:00;;;;;;;47.33;21.23;;;6.90;99.90;;;;;;5005828;28;20033;-43
2023/12/13 02:15:26;;;;;;;40.63;21.75;;;6.90;99.90;;;;;;5004316;28;20076;-43
2023/12/13 02:17:52;;;;;;;35.92;21.60;;;6.90;99.90;;;;;;5007632;28;20013;-44
2023/12/13 02:20:18;;;;;;;35.97;19.00;;;7.00;99.90;;;;;;5007672;28;20029;-45
2023/12/13 02:22:44;;;;;;;40.85;21.30;;;7.00;99.90;;;;;;5007872;28;20379;-46
2023/12/13 02:25:15;;;;;;;29.50;18.65;;;6.90;99.90;;;;;;5007114;28;20030;-43
2023/12/13 02:27:44;;;;;;;30.95;17.90;;;7.00;99.90;;;;;;5007311;28;20220;-44
2023/12/13 02:30:10;;;;;;;32.97;20.33;;;7.00;99.90;;;;;;5007182;28;20033;-44
2023/12/13 02:32:37;;;;;;;39.28;21.23;;;7.00;99.90;;;;;;5007036;28;20740;-47
2023/12/13 02:35:03;;;;;;;32.95;20.02;;;7.00;99.90;;;;;;5006654;28;20200;-43
2023/12/13 02:37:29;;;;;;;37.53;21.15;;;7.00;99.90;;;;;;5007597;28;20026;-44
2023/12/13 02:39:56;;;;;;;38.33;20.92;;;7.00;99.90;;;;;;5007619;28;20021;-45
2023/12/13 02:42:22;;;;;;;37.15;20.35;;;7.00;99.90;;;;;;5007846;28;20022;-43
2023/12/13 02:44:48;;;;;;;39.55;19.75;;;7.00;99.90;;;;;;5007242;28;20029;-45
2023/12/13 02:47:13;;;;;;;36.17;20.38;;;7.00;99.90;;;;;;5009156;28;20601;-44
2023/12/13 02:49:39;;;;;;;32.92;21.35;;;7.00;99.90;;;;;;4992174;28;20113;-46
2023/12/13 02:52:05;;;;;;;33.40;20.20;;;7.00;99.90;;;;;;4993295;28;20026;-43
2023/12/13 02:54:31;;;;;;;32.92;19.67;;;7.00;99.90;;;;;;4991829;28;20091;-43
2023/12/13 02:56:56;;;;;;;38.97;19.52;;;7.00;99.90;;;;;;5009255;28;20503;-42
2023/12/13 02:59:22;;;;;;;34.15;20.13;;;7.00;99.90;;;;;;5010550;28;20056;-44
2023/12/13 03:01:47;;;;;;;34.00;18.80;;;6.90;99.90;;;;;;5010746;28;20030;-45
2023/12/13 03:04:13;;;;;;;32.20;19.25;;;6.90;99.90;;;;;;5010579;28;20044;-42
2023/12/13 03:06:38;;;;;;;39.40;20.15;;;6.90;99.90;;;;;;5010246;28;20026;-42
2023/12/13 03:09:04;;;;;;;40.97;20.70;;;6.90;99.90;;;;;;5010900;28;20538;-43
2023/12/13 03:11:30;;;;;;;37.63;19.40;;;6.90;99.90;;;;;;4993068;28;20026;-44
2023/12/13 03:13:56;;;;;;;34.10;19.58;;;6.90;99.90;;;;;;5010565;28;20154;-42
2023/12/13 03:16:21;;;;;;;32.92;19.33;;;6.90;99.90;;;;;;5010445;28;20038;-44
2023/12/13 03:18:47;;;;;;;30.85;17.58;;;6.90;99.90;;;;;;5010321;28;20014;-43
2023/12/13 03:21:13;;;;;;;35.88;19.02;;;6.90;99.90;;;;;;4992421;28;20017;-44
2023/12/13 03:23:38;;;;;;;43.92;19.35;;;6.90;99.90;;;;;;4990654;28;20090;-43
2023/12/13 03:26:04;;;;;;;37.00;19.27;;;6.90;99.90;;;;;;4997026;28;20062;-43
2023/12/13 03:28:30;;;;;;;36.28;19.77;;;6.90;99.90;;;;;;5010332;28;20120;-44
2023/12/13 03:30:56;;;;;;;42.30;21.20;;;6.90;99.90;;;;;;5010522;28;20636;-43
2023/12/13 03:33:21;;;;;;;33.35;20.17;;;6.90;99.90;;;;;;5009432;28;20042;-44
2023/12/13 03:35:47;;;;;;;36.75;19.83;;;6.90;99.90;;;;;;5009500;28;20041;-45
2023/12/13 03:38:12;;;;;;;32.33;18.63;;;6.90;99.90;;;;;;5008393;28;20058;-43
2023/12/13 03:40:38;;;;;;;36.50;20.15;;;6.90;99.90;;;;;;5008265;28;20034;-45
2023/12/13 03:43:03;;;;;;;33.10;18.92;;;7.00;99.90;;;;;;5008475;28;20022;-45
2023/12/13 03:45:29;;;;;;;35.20;20.98;;;6.90;99.90;;;;;;5007936;28;20105;-43
2023/12/13 03:47:54;;;;;;;32.47;18.90;;;7.00;99.90;;;;;;5008231;28;20022;-44
2023/12/13 03:50:20;;;;;;;34.60;18.77;;;6.90;99.90;;;;;;5009784;28;20022;-44
2023/12/13 03:52:46;;;;;;;41.95;20.65;;;7.00;99.90;;;;;;5009893;28;20376;-42
2023/12/13 03:55:12;;;;;;;34.03;20.50;;;6.90;99.90;;;;;;5009131;28;20048;-43
2023/12/13 03:57:39;;;;;;;37.97;20.95;;;6.90;99.90;;;;;;5009455;28;20022;-43
2023/12/13 04:00:06;;;;;;;38.42;21.48;;;6.90;99.90;;;;;;5009791;28;20018;-43
2023/12/13 04:02:32;;;;;;;36.15;19.75;;;6.90;99.90;;;;;;5010022;28;20105;-42
2023/12/13 04:04:57;;;;;;;40.38;20.45;;;6.90;99.90;;;;;;4997130;28;20100;-43
2023/12/13 04:07:23;;;;;;;37.55;20.63;;;6.90;99.90;;;;;;5009478;28;20061;-45
2023/12/13 04:09:48;;;;;;;32.95;19.70;;;6.90;99.90;;;;;;5009679;28;20030;-44
2023/12/13 04:12:15;;;;;;;34.15;21.15;;;6.90;99.90;;;;;;5008879;28;20032;-44
2023/12/13 04:14:41;;;;;;;30.27;18.55;;;6.90;99.90;;;;;;5006341;28;20530;-44
2023/12/13 04:17:07;;;;;;;36.75;20.40;;;6.90;99.90;;;;;;5009060;28;20145;-43
2023/12/13 04:19:33;;;;;;;35.03;20.35;;;7.00;99.90;;;;;;5011573;28;20120;-44
2023/12/13 04:21:58;;;;;;;31.30;18.83;;;6.90;99.90;;;;;;5014545;28;20022;-42
2023/12/13 04:24:24;;;;;;;38.92;21.48;;;6.90;99.90;;;;;;5010887;28;20501;-41
2023/12/13 04:26:49;;;;;;;40.92;21.98;;;6.90;99.90;;;;;;5008803;28;20264;-43
2023/12/13 04:29:15;;;;;;;35.83;19.30;;;6.90;99.90;;;;;;5008643;28;20554;-46
2023/12/13 04:31:42;;;;;;;33.40;19.38;;;6.90;99.90;;;;;;5008440;28;20104;-45
2023/12/13 04:34:07;;;;;;;34.88;19.80;;;6.90;99.90;;;;;;5008196;28;20053;-44
2023/12/13 04:36:33;;;;;;;33.22;20.13;;;6.90;99.90;;;;;;5008051;28;20056;-42
2023/12/13 04:38:59;;;;;;;29.13;18.83;;;6.90;99.90;;;;;;5008053;28;20034;-44
2023/12/13 04:41:25;;;;;;;29.80;18.90;;;6.90;99.90;;;;;;5008171;28;20029;-45
2023/12/13 04:43:51;;;;;;;31.60;18.50;;;6.90;99.90;;;;;;5007752;28;20018;-41
2023/12/13 04:46:17;;;;;;;38.75;20.67;;;6.90;99.90;;;;;;5007982;28;20046;-43
2023/12/13 04:48:43;;;;;;;34.38;19.20;;;6.90;99.90;;;;;;5008478;28;20032;-44
2023/12/13 04:51:08;;;;;;;32.88;21.40;;;6.90;99.90;;;;;;5008344;28;20214;-43
2023/12/13 04:53:34;;;;;;;32.03;19.30;;;6.90;99.90;;;;;;5007669;28;20177;-43
2023/12/13 04:56:00;;;;;;;33.90;20.45;;;6.90;99.90;;;;;;4982893;28;20106;-44
2023/12/13 04:58:27;;;;;;;33.58;19.77;;;6.90;99.90;;;;;;5008441;28;20396;-45
2023/12/13 05:00:52;;;;;;;34.45;19.38;;;6.90;99.90;;;;;;5007996;28;20036;-44
2023/12/13 05:03:18;;;;;;;34.05;20.15;;;6.90;99.90;;;;;;5008055;28;20109;-43
2023/12/13 05:05:44;;;;;;;33.90;19.27;;;6.90;99.90;;;;;;5007344;28;20025;-42
2023/12/13 05:08:12;;;;;;;32.88;19.20;;;6.90;99.90;;;;;;5008293;28;20030;-42
2023/12/13 05:10:43;;;;;;;34.47;19.45;;;6.90;99.90;;;;;;5007069;28;20043;-46
2023/12/13 05:13:09;;;;;;;32.45;19.50;;;6.80;99.90;;;;;;5007786;28;20017;-43
2023/12/13 05:15:34;;;;;;;34.55;19.50;;;6.80;99.90;;;;;;5007300;28;20065;-45
2023/12/13 05:18:00;;;;;;;34.53;19.45;;;6.80;99.90;;;;;;5006126;28;20056;-43
2023/12/13 05:20:26;;;;;;;34.72;19.45;;;6.80;99.90;;;;;;5007715;28;20030;-43
2023/12/13 05:22:51;;;;;;;32.03;18.52;;;6.90;99.90;;;;;;5007653;28;20058;-43
2023/12/13 05:25:17;;;;;;;31.10;19.15;;;6.90;99.90;;;;;;5007207;28;20065;-47
2023/12/13 05:27:44;;;;;;;31.73;18.48;;;6.90;99.90;;;;;;5007898;28;20010;-42
2023/12/13 05:30:10;;;;;;;42.17;21.98;;;6.90;99.90;;;;;;5007890;28;20025;-44
2023/12/13 05:32:36;;;;;;;30.20;18.35;;;6.80;99.90;;;;;;4987246;28;20550;-45
2023/12/13 05:35:02;;;;;;;27.10;17.67;;;6.80;99.90;;;;;;5006792;28;20150;-45
2023/12/13 05:37:28;;;;;;;30.08;18.15;;;6.80;99.90;;;;;;5007576;28;20062;-42
2023/12/13 05:39:53;;;;;;;33.00;19.20;;;6.80;99.90;;;;;;5007291;28;20113;-43
2023/12/13 05:42:19;;;;;;;31.13;17.95;;;6.90;99.90;;;;;;5007872;28;20041;-45
2023/12/13 05:44:46;;;;;;;31.40;19.20;;;6.90;99.90;;;;;;5007472;28;20060;-43
2023/12/13 05:47:12;;;;;;;32.22;18.70;;;6.90;99.90;;;;;;5008000;28;20248;-44
2023/12/13 05:49:38;;;;;;;32.50;19.60;;;6.90;99.90;;;;;;5007723;28;20032;-43
2023/12/13 05:52:04;;;;;;;34.97;19.98;;;6.90;99.90;;;;;;5008219;28;20175;-44
2023/12/13 05:54:29;;;;;;;30.55;19.33;;;6.90;99.90;;;;;;5007458;28;20223;-43
2023/12/13 05:56:55;;;;;;;32.35;18.70;;;6.90;99.90;;;;;;5007856;28;20049;-42
2023/12/13 05:59:21;;;;;;;34.20;19.05;;;6.90;99.90;;;;;;5008008;28;20033;-43
2023/12/13 06:01:46;;;;;;;35.53;20.67;;;6.90;99.90;;;;;;4987920;28;20484;-44
2023/12/13 06:04:12;;;;;;;31.83;19.05;;;6.90;99.90;;;;;;5007628;28;20018;-46
2023/12/13 06:06:44;;;;;;;37.38;20.92;;;6.90;99.90;;;;;;5007203;28;20423;-44
2023/12/13 06:09:10;;;;;;;34.33;19.88;;;6.90;99.90;;;;;;5014133;28;20069;-43
2023/12/13 06:11:36;;;;;;;36.42;20.85;;;6.90;99.90;;;;;;5007641;28;20030;-47
2023/12/13 06:14:02;;;;;;;33.40;18.85;;;6.90;99.90;;;;;;5007263;28;20030;-43
2023/12/13 06:16:28;;;;;;;30.95;18.13;;;6.90;99.90;;;;;;5007261;28;20034;-44
2023/12/13 06:18:53;;;;;;;31.88;18.20;;;6.90;99.90;;;;;;5007326;28;20100;-42
2023/12/13 06:21:20;;;;;;;35.70;20.70;;;6.90;99.90;;;;;;5009350;28;20018;-43
2023/12/13 06:23:45;;;;;;;32.95;17.10;;;6.90;99.90;;;;;;5010956;28;20034;-42
2023/12/13 06:26:11;;;;;;;36.38;19.48;;;6.90;99.90;;;;;;5010627;28;20049;-44
2023/12/13 06:28:37;;;;;;;33.65;18.92;;;6.90;99.90;;;;;;4993762;28;20022;-44
2023/12/13 06:31:02;;;;;;;32.75;18.50;;;6.80;99.90;;;;;;5011106;28;20022;-42
2023/12/13 06:33:29;;;;;;;31.35;16.38;;;6.90;99.90;;;;;;4993017;28;20503;-43
2023/12/13 06:35:54;;;;;;;33.95;19.08;;;6.90;99.90;;;;;;5009824;28;20487;-46
2023/12/13 06:38:20;;;;;;;35.58;18.60;;;6.80;99.90;;;;;;5011192;28;20109;-47
2023/12/13 06:40:46;;;;;;;28.08;17.65;;;6.80;99.90;;;;;;5009600;28;20064;-42
2023/12/13 06:43:12;;;;;;;29.80;17.80;;;6.80;99.90;;;;;;5010711;28;20025;-42
2023/12/13 06:45:38;;;;;;;31.23;18.30;;;6.80;99.90;;;;;;5010261;28;20018;-45
2023/12/13 06:48:04;;;;;;;29.08;18.80;;;6.80;99.90;;;;;;5011080;28;20010;-46
2023/12/13 06:50:30;;;;;;;28.52;17.38;;;6.80;99.90;;;;;;5011397;28;20039;-43
2023/12/13 06:52:55;;;;;;;35.72;20.95;;;6.90;99.90;;;;;;5010977;28;20484;-43
2023/12/13 06:55:23;;;;;;;34.90;19.83;;;6.80;99.90;;;;;;5010569;28;20033;-43
2023/12/13 06:57:50;;;;;;;33.50;19.83;;;6.90;99.90;;;;;;5010175;28;20033;-46
2023/12/13 07:00:16;;;;;;;33.28;18.33;;;6.90;99.90;;;;;;5017580;28;20343;-44
2023/12/13 07:02:42;;;;;;;33.08;20.27;;;6.90;99.90;;;;;;5010512;28;20022;-44
2023/12/13 07:05:08;;;;;;;33.67;19.15;;;6.90;99.90;;;;;;4992483;28;20053;-45
2023/12/13 07:07:34;;;;;;;37.20;20.60;;;6.90;99.90;;;;;;5010805;28;20022;-46
2023/12/13 07:10:00;;;;;;;40.45;21.50;;;7.00;99.90;;;;;;5010284;28;20030;-43
2023/12/13 07:12:28;;;;;;;32.05;20.13;;;6.90;99.90;;;;;;5010411;28;20018;-43
2023/12/13 07:14:56;;;;;;;32.38;19.60;;;6.90;99.90;;;;;;5009400;28;20030;-44
2023/12/13 07:17:21;;;;;;;37.40;20.63;;;6.90;99.90;;;;;;5010158;28;20022;-44
2023/12/13 07:19:47;;;;;;;29.83;18.08;;;6.90;99.90;;;;;;5010181;28;20479;-42
2023/12/13 07:22:12;;;;;;;36.15;20.42;;;6.90;99.90;;;;;;5010354;28;20028;-47
2023/12/13 07:24:38;;;;;;;35.97;19.50;;;6.90;99.90;;;;;;5009941;28;20105;-44
2023/12/13 07:27:04;;;;;;;39.10;21.40;;;7.00;99.90;;;;;;5010044;28;20044;-45
2023/12/13 07:29:32;;;;;;;30.95;19.02;;;6.90;99.90;;;;;;5010419;28;20033;-42
2023/12/13 07:31:58;;;;;;;37.55;19.52;;;7.00;99.90;;;;;;5009552;28;20030;-44
2023/12/13 07:34:23;;;;;;;34.03;18.85;;;6.90;99.90;;;;;;5009946;28;20030;-45
2023/12/13 07:36:49;;;;;;;33.95;18.50;;;6.90;99.90;;;;;;4989818;28;20037;-47
2023/12/13 07:39:15;;;;;;;39.17;20.63;;;7.00;99.90;;;;;;5009811;28;20105;-44
2023/12/13 07:41:42;;;;;;;39.55;21.70;;;7.00;99.90;;;;;;5010112;28;20018;-45
2023/12/13 07:44:07;;;;;;;32.60;19.70;;;7.00;99.90;;;;;;5009928;28;20085;-43
2023/12/13 07:46:33;;;;;;;29.13;18.10;;;7.00;99.90;;;;;;5009395;28;20057;-42
2023/12/13 07:49:03;;;;;;;41.50;20.42;;;7.00;99.90;;;;;;5009561;28;20034;-42
2023/12/13 07:51:30;;;;;;;38.58;21.73;;;7.00;99.90;;;;;;5009178;28;20120;-43
2023/12/13 07:53:57;;;;;;;36.78;20.75;;;7.10;99.90;;;;;;5008707;28;20589;-43
2023/12/13 07:56:23;;;;;;;34.88;20.98;;;7.10;99.90;;;;;;5009261;28;20069;-42
2023/12/13 07:58:48;;;;;;;36.35;20.35;;;7.00;99.90;;;;;;5009343;28;20578;-42
2023/12/13 08:01:15;;;;;;;36.15;21.33;;;7.10;99.90;;;;;;5009533;28;20022;-42
2023/12/13 08:03:40;;;;;;;36.83;20.85;;;7.10;99.90;;;;;;5009212;28;20105;-46
2023/12/13 08:06:12;;;;;;;39.20;21.23;;;7.10;99.90;;;;;;4990894;28;20049;-41
2023/12/13 08:08:39;;;;;;;39.45;21.63;;;7.00;99.90;;;;;;5009123;28;20018;-42
2023/12/13 08:11:06;;;;;;;40.75;20.30;;;7.00;99.90;;;;;;4990482;28;20036;-44
2023/12/13 08:13:32;;;;;;;39.38;20.17;;;7.00;99.90;;;;;;5009121;28;20025;-42
2023/12/13 08:15:58;;;;;;;34.35;20.30;;;7.00;99.90;;;;;;5008647;28;20042;-44
2023/12/13 08:18:23;;;;;;;37.10;19.58;;;7.00;99.90;;;;;;5009275;28;20105;-45
2023/12/13 08:20:49;;;;;;;34.65;19.92;;;7.00;99.90;;;;;;5008420;28;20291;-42
2023/12/13 08:23:15;;;;;;;36.15;20.92;;;7.00;99.90;;;;;;5008740;28;20219;-42
2023/12/13 08:25:41;;;;;;;31.23;19.13;;;7.00;99.90;;;;;;5007029;28;20548;-44
2023/12/13 08:28:07;;;;;;;35.28;20.35;;;7.00;99.90;;;;;;4988365;28;20022;-44
2023/12/13 08:30:33;;;;;;;33.35;19.98;;;7.00;99.90;;;;;;5008625;28;20044;-42
2023/12/13 08:32:59;;;;;;;40.28;20.55;;;7.00;99.90;;;;;;5008232;28;20029;-42
2023/12/13 08:35:24;;;;;;;30.95;20.13;;;7.10;99.90;;;;;;5007486;28;20125;-43
2023/12/13 08:37:50;;;;;;;39.80;21.65;;;7.10;99.90;;;;;;5007626;28;20065;-44
2023/12/13 08:40:15;;;;;;;36.85;21.48;;;7.10;99.90;;;;;;5014986;28;20029;-43
2023/12/13 08:42:41;;;;;;;34.67;19.40;;;7.10;99.90;;;;;;5006976;28;20022;-45
2023/12/13 08:45:07;;;;;;;39.53;19.58;;;7.10;99.90;;;;;;5006419;28;20026;-41
2023/12/13 08:47:33;;;;;;;35.60;19.23;;;7.10;99.90;;;;;;5007979;28;20025;-42
2023/12/13 08:49:58;;;;;;;36.28;19.52;;;7.10;99.90;;;;;;5009037;28;20030;-42
2023/12/13 08:52:24;;;;;;;31.88;18.80;;;7.10;99.90;;;;;;5008675;28;20081;-45
2023/12/13 08:54:49;;;;;;;32.10;18.55;;;7.10;99.90;;;;;;5008144;28;20105;-43
2023/12/13 08:57:15;;;;;;;32.88;20.65;;;7.10;99.90;;;;;;5008156;28;20018;-43
2023/12/13 08:59:40;;;;;;;33.15;18.55;;;7.20;99.90;;;;;;5008721;28;20383;-42
2023/12/13 09:02:06;;;;;;;31.90;19.08;;;7.20;99.90;;;;;;5008423;28;20279;-46
2023/12/13 09:04:32;;;;;;;36.35;20.98;;;7.20;99.90;;;;;;5008387;28;20092;-43
2023/12/13 09:06:57;;;;;;;35.80;19.02;;;7.20;99.90;;;;;;5008654;28;20597;-43
2023/12/13 09:09:23;;;;;;;29.80;18.23;;;7.20;99.90;;;;;;4990813;28;20022;-43
2023/12/13 09:11:48;;;;;;;28.38;17.30;;;7.20;99.90;;;;;;5008593;28;20080;-43
2023/12/13 09:14:14;;;;;;;31.23;18.67;;;7.30;99.90;;;;;;5008260;28;20022;-43
2023/12/13 09:16:40;;;;;;;36.88;21.48;;;7.30;99.90;;;;;;5008258;28;20100;-42
2023/12/13 09:19:07;;;;;;;27.58;17.83;;;7.30;99.90;;;;;;5008337;28;20017;-42
2023/12/13 09:21:33;;;;;;;29.83;18.58;;;7.30;99.90;;;;;;4991034;28;20050;-42
2023/12/13 09:23:58;;;;;;;33.92;18.77;;;7.30;99.90;;;;;;5008353;28;20096;-41
2023/12/13 09:26:24;;;;;;;28.10;17.20;;;7.40;99.90;;;;;;5008080;28;20018;-42
2023/12/13 09:28:49;;;;;;;28.38;17.35;;;7.40;99.90;;;;;;5008433;28;20022;-43
2023/12/13 09:31:15;;;;;;;26.63;17.08;;;7.40;99.90;;;;;;5008256;28;20491;-42
2023/12/13 09:33:41;;;;;;;30.13;17.75;;;7.30;99.90;;;;;;5008245;28;20022;-45
2023/12/13 09:36:07;;;;;;;26.40;15.80;;;7.40;99.90;;;;;;5008174;28;20112;-42
2023/12/13 09:38:33;;;;;;;26.30;17.23;;;7.40;99.90;;;;;;5008165;28;20117;-46
2023/12/13 09:40:59;;;;;;;29.33;17.58;;;7.40;99.90;;;;;;5008000;28;20575;-43
2023/12/13 09:43:26;;;;;;;28.17;17.50;;;7.40;99.90;;;;;;5008341;28;20022;-46
2023/12/13 09:45:53;;;;;;;33.63;17.15;;;7.40;99.90;;;;;;5007627;28;20050;-43
2023/12/13 09:48:22;;;;;;;28.48;17.73;;;7.40;99.90;;;;;;4989900;28;20021;-43
2023/12/13 09:50:53;;;;;;;26.65;17.27;;;7.40;99.90;;;;;;5008059;28;20026;-43
2023/12/13 09:53:21;;;;;;;25.45;16.05;;;7.40;99.90;;;;;;5006451;28;20483;-43
2023/12/13 09:55:47;;;;;;;24.55;15.70;;;7.50;99.90;;;;;;5009085;28;20066;-45
2023/12/13 09:58:13;;;;;;;27.77;17.20;;;7.50;99.90;;;;;;5012017;28;20121;-42
2023/12/13 10:00:38;;;;;;;29.52;17.27;;;7.60;99.90;;;;;;5012020;28;20156;-43
2023/12/13 10:03:05;;;;;;;25.63;16.27;;;7.70;99.90;;;;;;5011747;28;20079;-43
2023/12/13 10:05:32;;;;;;;26.83;17.25;;;7.70;99.90;;;;;;5011522;28;20029;-43
2023/12/13 10:08:02;;;;;;;27.58;17.98;;;7.80;99.90;;;;;;5011581;28;20025;-42
2023/12/13 10:10:31;;;;;;;27.02;17.00;;;7.90;99.90;;;;;;5011705;28;20102;-44
2023/12/13 10:13:01;;;;;;;27.90;16.55;;;8.00;99.90;;;;;;4994857;28;20026;-42
2023/12/13 10:15:34;;;;;;;28.83;17.63;;;8.10;99.90;;;;;;5010655;28;20088;-44
2023/12/13 10:18:01;;;;;;;22.55;15.43;;;8.10;99.90;;;;;;5011097;28;20510;-45
2023/12/13 10:20:28;;;;;;;21.55;14.82;;;8.20;99.90;;;;;;5011103;28;20034;-44
2023/12/13 10:22:54;;;;;;;23.08;15.25;;;8.30;99.90;;;;;;5012343;28;20018;-45
2023/12/13 10:25:21;;;;;;;25.17;15.82;;;8.40;99.90;;;;;;5011381;28;20410;-45
2023/12/13 10:27:47;;;;;;;22.55;15.57;;;8.50;99.90;;;;;;5011321;28;20061;-44
2023/12/13 10:30:13;;;;;;;24.88;16.02;;;8.70;99.90;;;;;;5010697;28;20531;-43
2023/12/13 10:32:40;;;;;;;22.70;15.35;;;8.70;99.90;;;;;;5010957;28;20030;-45
2023/12/13 10:35:06;;;;;;;21.75;14.98;;;8.80;99.90;;;;;;5009867;28;20022;-42
2023/12/13 10:37:34;;;;;;;19.17;13.15;;;8.80;99.90;;;;;;5011292;28;20069;-43
2023/12/13 10:40:00;;;;;;;24.02;15.23;;;8.90;99.90;;;;;;5010899;28;20033;-43
2023/12/13 10:42:26;;;;;;;19.75;13.48;;;8.80;99.90;;;;;;4994693;28;20018;-46
2023/12/13 10:44:52;;;;;;;19.92;13.50;;;8.90;99.90;;;;;;5010412;28;20089;-43
2023/12/13 10:47:25;;;;;;;23.27;15.38;;;8.90;99.90;;;;;;5010825;28;20162;-42
2023/12/13 10:49:55;;;;;;;24.45;13.80;;;8.90;99.90;;;;;;5010612;28;20346;-43
2023/12/13 10:52:23;;;;;;;19.40;12.73;;;8.90;99.90;;;;;;5010578;28;20056;-43
2023/12/13 10:54:51;;;;;;;20.85;13.75;;;8.80;99.90;;;;;;4995280;28;20501;-46
2023/12/13 10:57:17;;;;;;;22.73;14.40;;;8.80;99.90;;;;;;5002282;28;20033;-44
2023/12/13 10:59:44;;;;;;;18.95;12.93;;;8.80;99.90;;;;;;5010273;28;20044;-43
2023/12/13 11:02:12;;;;;;;17.83;12.20;;;8.80;99.90;;;;;;5010426;28;20053;-42
2023/12/13 11:04:40;;;;;;;19.27;13.23;;;8.80;99.90;;;;;;5014643;28;20072;-43
2023/12/13 11:07:06;;;;;;;18.98;13.23;;;8.80;99.90;;;;;;5005942;28;20121;-42
2023/12/13 11:09:32;;;;;;;18.92;13.25;;;8.80;99.90;;;;;;5009944;28;20170;-44
2023/12/13 11:12:09;;;;;;;23.17;15.30;;;8.90;99.90;;;;;;5009322;28;20055;-43
2023/12/13 11:14:35;;;;;;;24.33;16.48;;;8.80;99.90;;;;;;5005530;28;20117;-43
2023/12/13 11:17:01;;;;;;;30.50;17.83;;;8.90;99.90;;;;;;4991503;28;20113;-44
2023/12/13 11:19:27;;;;;;;22.23;15.30;;;8.90;99.90;;;;;;5009433;28;20539;-46
2023/12/13 11:21:56;;;;;;;28.83;17.98;;;8.90;99.90;;;;;;5011187;28;20048;-43
2023/12/13 11:24:25;;;;;;;24.50;16.23;;;8.90;99.90;;;;;;5009401;28;20026;-44
2023/12/13 11:26:53;;;;;;;29.80;19.08;;;8.80;99.90;;;;;;5012745;28;20025;-44
2023/12/13 11:29:25;;;;;;;29.08;19.08;;;8.80;99.90;;;;;;5008610;28;20038;-44
2023/12/13 11:32:11;;;;;;;33.97;19.98;;;8.70;99.90;;;;;;5010349;28;20129;-44
2023/12/13 11:34:44;;;;;;;28.38;18.70;;;8.70;99.90;;;;;;5009392;28;20125;-43
2023/12/13 11:37:11;;;;;;;28.58;19.25;;;8.70;99.90;;;;;;5011440;28;20056;-43
2023/12/13 11:39:39;;;;;;;30.88;18.92;;;8.70;99.90;;;;;;5007875;28;20026;-44
2023/12/13 11:42:07;;;;;;;34.55;20.45;;;8.60;99.90;;;;;;5010836;28;20066;-43
2023/12/13 11:44:34;;;;;;;30.27;18.90;;;8.60;99.90;;;;;;5009133;28;20018;-44
2023/12/13 11:47:03;;;;;;;31.08;18.95;;;8.60;99.90;;;;;;4990252;28;20018;-46
2023/12/13 11:49:29;;;;;;;40.35;22.83;;;8.60;99.90;;;;;;5006299;28;20467;-46
2023/12/13 11:51:56;;;;;;;51.17;30.00;;;8.50;99.90;;;;;;5007261;28;20018;-45
2023/12/13 11:54:21;;;;;;;40.20;23.88;;;8.50;99.90;;;;;;4990866;28;20065;-44
2023/12/13 11:56:47;;;;;;;41.03;21.98;;;8.50;99.90;;;;;;5008747;28;20058;-43
2023/12/13 11:59:13;;;;;;;30.25;17.48;;;8.50;99.90;;;;;;5009391;28;20034;-43
2023/12/13 12:01:40;;;;;;;29.17;17.60;;;8.50;99.90;;;;;;5009465;28;20018;-46
2023/12/13 12:04:06;;;;;;;30.42;18.10;;;8.40;99.90;;;;;;5009716;28;20057;-43
2023/12/13 12:06:32;;;;;;;28.33;16.50;;;8.40;99.90;;;;;;4993789;28;20073;-42
2023/12/13 12:09:01;;;;;;;29.60;17.00;;;8.40;99.90;;;;;;5009243;28;20057;-43
2023/12/13 12:11:26;;;;;;;25.10;15.25;;;8.40;99.90;;;;;;5009825;28;20034;-45
2023/12/13 12:13:54;;;;;;;25.08;14.85;;;8.40;99.90;;;;;;5009514;28;20048;-44
2023/12/13 12:16:20;;;;;;;20.95;13.45;;;8.40;99.90;;;;;;5008054;28;20088;-43
2023/12/13 12:18:46;;;;;;;24.90;14.05;;;8.40;99.90;;;;;;5008346;28;20021;-43
2023/12/13 12:21:12;;;;;;;25.55;14.73;;;8.40;99.90;;;;;;5008405;28;20075;-42
2023/12/13 12:23:39;;;;;;;24.48;13.95;;;8.40;99.90;;;;;;5008569;28;20161;-45
2023/12/13 12:26:09;;;;;;;22.13;13.25;;;8.40;99.90;;;;;;5006652;28;20014;-46
2023/12/13 12:28:35;;;;;;;21.50;13.30;;;8.30;99.90;;;;;;5008908;28;20014;-44
2023/12/13 12:31:02;;;;;;;23.75;14.10;;;8.40;99.90;;;;;;5008688;28;20383;-42